sensor_id;sensor_type;location;lat;lon;timestamp;P1;durP1;ratioP1;P2;durP2;ratioP2
8550;SDS011;4313;42.000;21.380;2022-12-10T00:01:04;51.37;;;35.67;;
8550;SDS011;4313;42.000;21.380;2022-12-10T00:03:32;51.73;;;35.13;;
8550;SDS011;4313;42.000;21.380;2022-12-10T00:06:01;54.60;;;36.37;;
8550;SDS011;4313;42.000;21.380;2022-12-10T00:08:29;54.63;;;35.10;;
8550;SDS011;4313;42.000;21.380;2022-12-10T00:10:56;50.60;;;34.83;;
8550;SDS011;4313;42.000;21.380;2022-12-10T00:13:23;51.13;;;33.67;;
8550;SDS011;4313;42.000;21.380;2022-12-10T00:15:51;50.07;;;34.93;;
8550;SDS011;4313;42.000;21.380;2022-12-10T00:18:18;49.03;;;32.57;;
8550;SDS011;4313;42.000;21.380;2022-12-10T00:20:45;52.27;;;33.53;;
8550;SDS011;4313;42.000;21.380;2022-12-10T00:23:13;46.60;;;31.67;;
8550;SDS011;4313;42.000;21.380;2022-12-10T00:25:40;48.53;;;32.73;;
8550;SDS011;4313;42.000;21.380;2022-12-10T00:28:07;51.17;;;32.57;;
8550;SDS011;4313;42.000;21.380;2022-12-10T00:30:35;51.10;;;33.17;;
8550;SDS011;4313;42.000;21.380;2022-12-10T00:33:03;48.33;;;34.40;;
8550;SDS011;4313;42.000;21.380;2022-12-10T00:35:30;47.20;;;31.60;;
8550;SDS011;4313;42.000;21.380;2022-12-10T00:37:57;42.23;;;29.07;;
8550;SDS011;4313;42.000;21.380;2022-12-10T00:40:25;45.20;;;30.87;;
8550;SDS011;4313;42.000;21.380;2022-12-10T00:42:53;47.00;;;29.33;;
8550;SDS011;4313;42.000;21.380;2022-12-10T00:45:20;52.40;;;33.33;;
8550;SDS011;4313;42.000;21.380;2022-12-10T00:47:47;51.60;;;33.23;;
8550;SDS011;4313;42.000;21.380;2022-12-10T00:50:14;42.37;;;30.27;;
8550;SDS011;4313;42.000;21.380;2022-12-10T00:52:41;47.07;;;31.47;;
8550;SDS011;4313;42.000;21.380;2022-12-10T00:55:08;42.17;;;31.27;;
8550;SDS011;4313;42.000;21.380;2022-12-10T00:57:43;45.27;;;31.47;;
8550;SDS011;4313;42.000;21.380;2022-12-10T01:00:10;46.93;;;29.60;;
8550;SDS011;4313;42.000;21.380;2022-12-10T01:02:38;46.10;;;31.37;;
8550;SDS011;4313;42.000;21.380;2022-12-10T01:05:05;42.13;;;29.40;;
8550;SDS011;4313;42.000;21.380;2022-12-10T01:07:33;44.87;;;29.53;;
8550;SDS011;4313;42.000;21.380;2022-12-10T01:10:00;40.63;;;28.63;;
8550;SDS011;4313;42.000;21.380;2022-12-10T01:12:27;41.27;;;30.27;;
8550;SDS011;4313;42.000;21.380;2022-12-10T01:14:56;41.20;;;30.67;;
8550;SDS011;4313;42.000;21.380;2022-12-10T01:17:23;41.67;;;29.17;;
8550;SDS011;4313;42.000;21.380;2022-12-10T01:19:51;43.73;;;28.77;;
8550;SDS011;4313;42.000;21.380;2022-12-10T01:22:18;42.77;;;28.57;;
8550;SDS011;4313;42.000;21.380;2022-12-10T01:24:46;42.67;;;28.93;;
8550;SDS011;4313;42.000;21.380;2022-12-10T01:27:16;40.53;;;30.23;;
8550;SDS011;4313;42.000;21.380;2022-12-10T01:29:43;40.10;;;30.07;;
8550;SDS011;4313;42.000;21.380;2022-12-10T01:32:11;45.93;;;29.93;;
8550;SDS011;4313;42.000;21.380;2022-12-10T01:34:38;50.80;;;34.40;;
8550;SDS011;4313;42.000;21.380;2022-12-10T01:37:06;60.40;;;38.17;;
8550;SDS011;4313;42.000;21.380;2022-12-10T01:39:33;80.33;;;48.03;;
8550;SDS011;4313;42.000;21.380;2022-12-10T01:42:00;59.77;;;40.00;;
8550;SDS011;4313;42.000;21.380;2022-12-10T01:47:28;46.57;;;28.43;;
8550;SDS011;4313;42.000;21.380;2022-12-10T01:49:57;37.43;;;27.97;;
8550;SDS011;4313;42.000;21.380;2022-12-10T01:52:26;45.00;;;27.00;;
8550;SDS011;4313;42.000;21.380;2022-12-10T01:54:54;39.33;;;27.87;;
8550;SDS011;4313;42.000;21.380;2022-12-10T01:57:22;38.93;;;27.50;;
8550;SDS011;4313;42.000;21.380;2022-12-10T01:59:52;39.83;;;28.70;;
8550;SDS011;4313;42.000;21.380;2022-12-10T02:02:29;39.07;;;27.23;;
8550;SDS011;4313;42.000;21.380;2022-12-10T02:05:07;38.07;;;27.33;;
8550;SDS011;4313;42.000;21.380;2022-12-10T02:07:45;44.78;;;28.23;;
8550;SDS011;4313;42.000;21.380;2022-12-10T02:10:23;40.93;;;28.93;;
8550;SDS011;4313;42.000;21.380;2022-12-10T02:12:57;41.57;;;28.23;;
8550;SDS011;4313;42.000;21.380;2022-12-10T02:15:29;42.63;;;28.37;;
8550;SDS011;4313;42.000;21.380;2022-12-10T02:18:01;41.13;;;26.97;;
8550;SDS011;4313;42.000;21.380;2022-12-10T02:20:32;44.47;;;29.20;;
8550;SDS011;4313;42.000;21.380;2022-12-10T02:23:05;43.07;;;28.73;;
8550;SDS011;4313;42.000;21.380;2022-12-10T02:25:36;42.70;;;28.30;;
8550;SDS011;4313;42.000;21.380;2022-12-10T02:28:10;45.10;;;29.17;;
8550;SDS011;4313;42.000;21.380;2022-12-10T02:30:41;40.80;;;27.85;;
8550;SDS011;4313;42.000;21.380;2022-12-10T02:33:09;41.43;;;28.53;;
8550;SDS011;4313;42.000;21.380;2022-12-10T02:35:37;39.73;;;28.23;;
8550;SDS011;4313;42.000;21.380;2022-12-10T02:38:07;39.03;;;27.37;;
8550;SDS011;4313;42.000;21.380;2022-12-10T02:40:36;44.83;;;28.13;;
8550;SDS011;4313;42.000;21.380;2022-12-10T02:43:07;37.90;;;26.30;;
8550;SDS011;4313;42.000;21.380;2022-12-10T02:45:35;41.47;;;28.07;;
8550;SDS011;4313;42.000;21.380;2022-12-10T02:48:06;41.20;;;26.80;;
8550;SDS011;4313;42.000;21.380;2022-12-10T02:50:39;42.93;;;26.83;;
8550;SDS011;4313;42.000;21.380;2022-12-10T02:53:06;46.03;;;27.93;;
8550;SDS011;4313;42.000;21.380;2022-12-10T02:55:37;39.33;;;26.97;;
8550;SDS011;4313;42.000;21.380;2022-12-10T02:58:15;41.17;;;27.70;;
8550;SDS011;4313;42.000;21.380;2022-12-10T03:00:50;44.97;;;28.07;;
8550;SDS011;4313;42.000;21.380;2022-12-10T03:03:25;41.60;;;27.73;;
8550;SDS011;4313;42.000;21.380;2022-12-10T03:05:59;44.37;;;28.40;;
8550;SDS011;4313;42.000;21.380;2022-12-10T03:08:31;40.70;;;26.73;;
8550;SDS011;4313;42.000;21.380;2022-12-10T03:11:01;43.73;;;29.23;;
8550;SDS011;4313;42.000;21.380;2022-12-10T03:13:32;42.07;;;27.17;;
8550;SDS011;4313;42.000;21.380;2022-12-10T03:16:02;37.93;;;27.43;;
8550;SDS011;4313;42.000;21.380;2022-12-10T03:18:31;39.60;;;27.57;;
8550;SDS011;4313;42.000;21.380;2022-12-10T03:21:00;45.57;;;28.90;;
8550;SDS011;4313;42.000;21.380;2022-12-10T03:23:29;37.13;;;27.73;;
8550;SDS011;4313;42.000;21.380;2022-12-10T03:25:58;43.83;;;28.30;;
8550;SDS011;4313;42.000;21.380;2022-12-10T03:28:26;39.20;;;26.60;;
8550;SDS011;4313;42.000;21.380;2022-12-10T03:30:53;40.43;;;27.03;;
8550;SDS011;4313;42.000;21.380;2022-12-10T03:33:22;39.63;;;27.17;;
8550;SDS011;4313;42.000;21.380;2022-12-10T03:35:50;40.90;;;26.50;;
8550;SDS011;4313;42.000;21.380;2022-12-10T03:38:18;39.53;;;25.87;;
8550;SDS011;4313;42.000;21.380;2022-12-10T03:40:44;39.07;;;26.10;;
8550;SDS011;4313;42.000;21.380;2022-12-10T03:43:12;35.57;;;25.97;;
8550;SDS011;4313;42.000;21.380;2022-12-10T03:45:40;38.03;;;26.83;;
8550;SDS011;4313;42.000;21.380;2022-12-10T03:48:07;36.53;;;25.23;;
8550;SDS011;4313;42.000;21.380;2022-12-10T03:50:34;35.20;;;25.87;;
8550;SDS011;4313;42.000;21.380;2022-12-10T03:53:03;36.63;;;26.33;;
8550;SDS011;4313;42.000;21.380;2022-12-10T03:55:30;37.37;;;25.80;;
8550;SDS011;4313;42.000;21.380;2022-12-10T03:57:58;34.63;;;25.40;;
8550;SDS011;4313;42.000;21.380;2022-12-10T04:00:25;34.87;;;24.77;;
8550;SDS011;4313;42.000;21.380;2022-12-10T04:02:52;37.70;;;25.00;;
8550;SDS011;4313;42.000;21.380;2022-12-10T04:05:19;39.47;;;26.10;;
8550;SDS011;4313;42.000;21.380;2022-12-10T04:07:46;37.13;;;25.13;;
8550;SDS011;4313;42.000;21.380;2022-12-10T04:10:15;36.80;;;26.07;;
8550;SDS011;4313;42.000;21.380;2022-12-10T04:12:42;40.93;;;25.33;;
8550;SDS011;4313;42.000;21.380;2022-12-10T04:15:29;36.40;;;25.88;;
8550;SDS011;4313;42.000;21.380;2022-12-10T04:18:13;38.73;;;24.70;;
8550;SDS011;4313;42.000;21.380;2022-12-10T04:20:40;38.47;;;24.93;;
8550;SDS011;4313;42.000;21.380;2022-12-10T04:23:25;39.90;;;28.07;;
8550;SDS011;4313;42.000;21.380;2022-12-10T04:26:11;37.13;;;26.13;;
8550;SDS011;4313;42.000;21.380;2022-12-10T04:28:56;37.53;;;25.93;;
8550;SDS011;4313;42.000;21.380;2022-12-10T04:31:23;42.33;;;26.83;;
8550;SDS011;4313;42.000;21.380;2022-12-10T04:33:50;37.87;;;26.87;;
8550;SDS011;4313;42.000;21.380;2022-12-10T04:36:17;41.80;;;27.92;;
8550;SDS011;4313;42.000;21.380;2022-12-10T04:38:44;39.33;;;28.38;;
8550;SDS011;4313;42.000;21.380;2022-12-10T04:41:12;42.53;;;26.17;;
8550;SDS011;4313;42.000;21.380;2022-12-10T04:43:40;40.20;;;26.80;;
8550;SDS011;4313;42.000;21.380;2022-12-10T04:46:07;41.85;;;26.15;;
8550;SDS011;4313;42.000;21.380;2022-12-10T04:48:35;43.73;;;28.73;;
8550;SDS011;4313;42.000;21.380;2022-12-10T04:51:02;41.90;;;30.20;;
8550;SDS011;4313;42.000;21.380;2022-12-10T04:53:29;45.25;;;27.45;;
8550;SDS011;4313;42.000;21.380;2022-12-10T04:55:56;41.37;;;28.73;;
8550;SDS011;4313;42.000;21.380;2022-12-10T04:58:24;39.80;;;27.10;;
8550;SDS011;4313;42.000;21.380;2022-12-10T05:01:00;38.33;;;24.83;;
8550;SDS011;4313;42.000;21.380;2022-12-10T05:03:28;37.77;;;26.83;;
8550;SDS011;4313;42.000;21.380;2022-12-10T05:05:55;42.17;;;26.93;;
8550;SDS011;4313;42.000;21.380;2022-12-10T05:08:22;74.83;;;49.00;;
8550;SDS011;4313;42.000;21.380;2022-12-10T05:10:51;75.40;;;44.17;;
8550;SDS011;4313;42.000;21.380;2022-12-10T05:13:18;60.35;;;39.40;;
8550;SDS011;4313;42.000;21.380;2022-12-10T05:15:47;50.70;;;33.83;;
8550;SDS011;4313;42.000;21.380;2022-12-10T05:18:33;55.00;;;36.60;;
8550;SDS011;4313;42.000;21.380;2022-12-10T05:21:00;45.63;;;32.80;;
8550;SDS011;4313;42.000;21.380;2022-12-10T05:23:28;49.20;;;32.10;;
8550;SDS011;4313;42.000;21.380;2022-12-10T05:25:58;45.40;;;31.73;;
8550;SDS011;4313;42.000;21.380;2022-12-10T05:28:26;41.03;;;29.70;;
8550;SDS011;4313;42.000;21.380;2022-12-10T05:30:56;47.63;;;31.52;;
8550;SDS011;4313;42.000;21.380;2022-12-10T05:33:23;48.37;;;31.20;;
8550;SDS011;4313;42.000;21.380;2022-12-10T05:35:51;39.20;;;28.88;;
8550;SDS011;4313;42.000;21.380;2022-12-10T05:38:19;41.78;;;28.83;;
8550;SDS011;4313;42.000;21.380;2022-12-10T05:40:46;41.00;;;27.77;;
8550;SDS011;4313;42.000;21.380;2022-12-10T05:43:13;38.83;;;26.97;;
8550;SDS011;4313;42.000;21.380;2022-12-10T05:45:41;38.30;;;28.37;;
8550;SDS011;4313;42.000;21.380;2022-12-10T05:48:10;40.30;;;28.43;;
8550;SDS011;4313;42.000;21.380;2022-12-10T05:50:37;45.65;;;30.77;;
8550;SDS011;4313;42.000;21.380;2022-12-10T05:53:06;50.05;;;37.28;;
8550;SDS011;4313;42.000;21.380;2022-12-10T05:55:33;57.00;;;35.90;;
8550;SDS011;4313;42.000;21.380;2022-12-10T05:58:00;43.75;;;32.67;;
8550;SDS011;4313;42.000;21.380;2022-12-10T06:00:27;40.33;;;30.53;;
8550;SDS011;4313;42.000;21.380;2022-12-10T06:02:54;45.33;;;29.87;;
8550;SDS011;4313;42.000;21.380;2022-12-10T06:05:23;39.00;;;28.13;;
8550;SDS011;4313;42.000;21.380;2022-12-10T06:07:50;65.07;;;46.60;;
8550;SDS011;4313;42.000;21.380;2022-12-10T06:10:17;67.47;;;47.93;;
8550;SDS011;4313;42.000;21.380;2022-12-10T06:12:44;47.57;;;33.13;;
8550;SDS011;4313;42.000;21.380;2022-12-10T06:15:11;53.53;;;38.40;;
8550;SDS011;4313;42.000;21.380;2022-12-10T06:17:38;44.87;;;34.27;;
8550;SDS011;4313;42.000;21.380;2022-12-10T06:20:07;43.33;;;32.20;;
8550;SDS011;4313;42.000;21.380;2022-12-10T06:22:37;45.97;;;33.03;;
8550;SDS011;4313;42.000;21.380;2022-12-10T06:25:04;45.90;;;35.00;;
8550;SDS011;4313;42.000;21.380;2022-12-10T06:27:32;50.33;;;34.53;;
8550;SDS011;4313;42.000;21.380;2022-12-10T06:29:59;53.70;;;42.73;;
8550;SDS011;4313;42.000;21.380;2022-12-10T06:32:26;56.13;;;43.00;;
8550;SDS011;4313;42.000;21.380;2022-12-10T06:34:53;60.80;;;46.23;;
8550;SDS011;4313;42.000;21.380;2022-12-10T06:37:20;59.00;;;42.70;;
8550;SDS011;4313;42.000;21.380;2022-12-10T06:39:50;58.83;;;39.30;;
8550;SDS011;4313;42.000;21.380;2022-12-10T06:42:18;56.23;;;39.83;;
8550;SDS011;4313;42.000;21.380;2022-12-10T06:44:45;62.70;;;45.22;;
8550;SDS011;4313;42.000;21.380;2022-12-10T06:47:13;58.30;;;42.60;;
8550;SDS011;4313;42.000;21.380;2022-12-10T06:49:40;70.60;;;45.93;;
8550;SDS011;4313;42.000;21.380;2022-12-10T06:52:07;66.93;;;45.23;;
8550;SDS011;4313;42.000;21.380;2022-12-10T06:54:34;64.73;;;45.57;;
8550;SDS011;4313;42.000;21.380;2022-12-10T06:57:02;60.07;;;43.70;;
8550;SDS011;4313;42.000;21.380;2022-12-10T06:59:31;61.00;;;45.13;;
8550;SDS011;4313;42.000;21.380;2022-12-10T07:01:58;68.97;;;45.53;;
8550;SDS011;4313;42.000;21.380;2022-12-10T07:04:25;62.40;;;45.17;;
8550;SDS011;4313;42.000;21.380;2022-12-10T07:06:52;58.10;;;42.50;;
8550;SDS011;4313;42.000;21.380;2022-12-10T07:09:19;56.60;;;40.77;;
8550;SDS011;4313;42.000;21.380;2022-12-10T07:11:46;60.78;;;44.95;;
8550;SDS011;4313;42.000;21.380;2022-12-10T07:14:15;69.23;;;51.30;;
8550;SDS011;4313;42.000;21.380;2022-12-10T07:16:42;52.40;;;42.63;;
8550;SDS011;4313;42.000;21.380;2022-12-10T07:19:10;51.23;;;38.87;;
8550;SDS011;4313;42.000;21.380;2022-12-10T07:21:39;53.03;;;40.50;;
8550;SDS011;4313;42.000;21.380;2022-12-10T07:24:08;54.67;;;42.27;;
8550;SDS011;4313;42.000;21.380;2022-12-10T07:26:38;59.93;;;43.57;;
8550;SDS011;4313;42.000;21.380;2022-12-10T07:29:07;67.23;;;46.37;;
8550;SDS011;4313;42.000;21.380;2022-12-10T07:31:37;91.97;;;51.20;;
8550;SDS011;4313;42.000;21.380;2022-12-10T07:34:06;67.78;;;45.22;;
8550;SDS011;4313;42.000;21.380;2022-12-10T07:36:33;59.95;;;41.60;;
8550;SDS011;4313;42.000;21.380;2022-12-10T07:39:00;136.20;;;80.05;;
8550;SDS011;4313;42.000;21.380;2022-12-10T07:41:27;420.10;;;218.37;;
8550;SDS011;4313;42.000;21.380;2022-12-10T07:43:57;196.83;;;108.13;;
8550;SDS011;4313;42.000;21.380;2022-12-10T07:46:25;272.33;;;143.57;;
8550;SDS011;4313;42.000;21.380;2022-12-10T07:48:54;126.80;;;76.50;;
8550;SDS011;4313;42.000;21.380;2022-12-10T07:51:21;75.70;;;51.10;;
8550;SDS011;4313;42.000;21.380;2022-12-10T07:53:50;350.63;;;182.32;;
8550;SDS011;4313;42.000;21.380;2022-12-10T07:56:18;157.47;;;91.10;;
8550;SDS011;4313;42.000;21.380;2022-12-10T07:58:46;125.93;;;72.17;;
8550;SDS011;4313;42.000;21.380;2022-12-10T08:01:14;101.20;;;68.90;;
8550;SDS011;4313;42.000;21.380;2022-12-10T08:03:42;86.17;;;55.90;;
8550;SDS011;4313;42.000;21.380;2022-12-10T08:06:11;97.53;;;76.75;;
8550;SDS011;4313;42.000;21.380;2022-12-10T08:08:40;79.65;;;57.88;;
8550;SDS011;4313;42.000;21.380;2022-12-10T08:11:07;79.65;;;56.65;;
8550;SDS011;4313;42.000;21.380;2022-12-10T08:13:35;84.97;;;67.43;;
8550;SDS011;4313;42.000;21.380;2022-12-10T08:16:03;77.15;;;57.47;;
8550;SDS011;4313;42.000;21.380;2022-12-10T08:18:31;85.03;;;62.22;;
8550;SDS011;4313;42.000;21.380;2022-12-10T08:21:02;88.07;;;67.00;;
8550;SDS011;4313;42.000;21.380;2022-12-10T08:23:31;72.78;;;55.47;;
8550;SDS011;4313;42.000;21.380;2022-12-10T08:26:01;103.35;;;72.10;;
8550;SDS011;4313;42.000;21.380;2022-12-10T08:28:29;116.38;;;83.10;;
8550;SDS011;4313;42.000;21.380;2022-12-10T08:30:56;90.38;;;66.95;;
8550;SDS011;4313;42.000;21.380;2022-12-10T08:33:23;89.53;;;60.63;;
8550;SDS011;4313;42.000;21.380;2022-12-10T08:35:50;69.57;;;50.85;;
8550;SDS011;4313;42.000;21.380;2022-12-10T08:38:17;66.43;;;48.72;;
8550;SDS011;4313;42.000;21.380;2022-12-10T08:40:46;73.15;;;55.90;;
8550;SDS011;4313;42.000;21.380;2022-12-10T08:43:13;92.43;;;66.22;;
8550;SDS011;4313;42.000;21.380;2022-12-10T08:45:41;89.90;;;60.22;;
8550;SDS011;4313;42.000;21.380;2022-12-10T08:48:08;79.50;;;57.80;;
8550;SDS011;4313;42.000;21.380;2022-12-10T08:50:35;66.47;;;50.70;;
8550;SDS011;4313;42.000;21.380;2022-12-10T08:53:02;58.20;;;42.80;;
8550;SDS011;4313;42.000;21.380;2022-12-10T08:55:29;56.17;;;40.55;;
8550;SDS011;4313;42.000;21.380;2022-12-10T08:57:59;47.40;;;37.05;;
8550;SDS011;4313;42.000;21.380;2022-12-10T09:00:26;51.78;;;37.38;;
8550;SDS011;4313;42.000;21.380;2022-12-10T09:02:53;57.88;;;39.15;;
8550;SDS011;4313;42.000;21.380;2022-12-10T09:05:20;65.15;;;44.90;;
8550;SDS011;4313;42.000;21.380;2022-12-10T09:07:48;81.25;;;51.47;;
8550;SDS011;4313;42.000;21.380;2022-12-10T09:10:15;76.55;;;50.47;;
8550;SDS011;4313;42.000;21.380;2022-12-10T09:12:43;67.72;;;50.05;;
8550;SDS011;4313;42.000;21.380;2022-12-10T09:15:12;60.20;;;44.88;;
8550;SDS011;4313;42.000;21.380;2022-12-10T09:17:39;57.25;;;39.00;;
8550;SDS011;4313;42.000;21.380;2022-12-10T09:20:06;51.22;;;36.30;;
8550;SDS011;4313;42.000;21.380;2022-12-10T09:22:34;63.97;;;42.72;;
8550;SDS011;4313;42.000;21.380;2022-12-10T09:25:03;55.97;;;39.97;;
8550;SDS011;4313;42.000;21.380;2022-12-10T09:27:31;57.78;;;42.83;;
8550;SDS011;4313;42.000;21.380;2022-12-10T09:29:58;53.92;;;39.80;;
8550;SDS011;4313;42.000;21.380;2022-12-10T09:32:27;55.28;;;38.75;;
8550;SDS011;4313;42.000;21.380;2022-12-10T09:34:54;49.60;;;35.72;;
8550;SDS011;4313;42.000;21.380;2022-12-10T09:37:21;51.47;;;37.53;;
8550;SDS011;4313;42.000;21.380;2022-12-10T09:39:48;49.58;;;34.08;;
8550;SDS011;4313;42.000;21.380;2022-12-10T09:42:21;45.20;;;32.70;;
8550;SDS011;4313;42.000;21.380;2022-12-10T09:44:57;42.30;;;31.08;;
8550;SDS011;4313;42.000;21.380;2022-12-10T09:47:31;44.00;;;30.58;;
8550;SDS011;4313;42.000;21.380;2022-12-10T09:50:06;42.50;;;29.30;;
8550;SDS011;4313;42.000;21.380;2022-12-10T09:52:39;52.88;;;35.50;;
8550;SDS011;4313;42.000;21.380;2022-12-10T09:55:10;46.65;;;28.58;;
8550;SDS011;4313;42.000;21.380;2022-12-10T09:57:39;43.42;;;27.55;;
8550;SDS011;4313;42.000;21.380;2022-12-10T10:00:15;44.33;;;28.23;;
8550;SDS011;4313;42.000;21.380;2022-12-10T10:02:48;39.35;;;27.45;;
8550;SDS011;4313;42.000;21.380;2022-12-10T10:05:17;39.85;;;26.75;;
8550;SDS011;4313;42.000;21.380;2022-12-10T10:07:48;39.85;;;27.60;;
8550;SDS011;4313;42.000;21.380;2022-12-10T10:10:20;39.33;;;25.95;;
8550;SDS011;4313;42.000;21.380;2022-12-10T10:12:52;39.03;;;25.73;;
8550;SDS011;4313;42.000;21.380;2022-12-10T10:15:24;39.55;;;27.63;;
8550;SDS011;4313;42.000;21.380;2022-12-10T10:17:55;39.35;;;25.75;;
8550;SDS011;4313;42.000;21.380;2022-12-10T10:20:24;35.15;;;24.33;;
8550;SDS011;4313;42.000;21.380;2022-12-10T10:22:51;40.53;;;25.83;;
8550;SDS011;4313;42.000;21.380;2022-12-10T10:25:19;47.83;;;32.50;;
8550;SDS011;4313;42.000;21.380;2022-12-10T10:27:46;44.72;;;31.25;;
8550;SDS011;4313;42.000;21.380;2022-12-10T10:30:14;37.67;;;27.38;;
8550;SDS011;4313;42.000;21.380;2022-12-10T10:32:45;41.42;;;26.65;;
8550;SDS011;4313;42.000;21.380;2022-12-10T10:35:26;44.40;;;28.80;;
8550;SDS011;4313;42.000;21.380;2022-12-10T10:37:58;36.88;;;26.05;;
8550;SDS011;4313;42.000;21.380;2022-12-10T10:40:28;37.25;;;24.25;;
8550;SDS011;4313;42.000;21.380;2022-12-10T10:42:57;37.40;;;26.10;;
8550;SDS011;4313;42.000;21.380;2022-12-10T10:45:30;32.95;;;22.45;;
8550;SDS011;4313;42.000;21.380;2022-12-10T10:48:04;28.75;;;20.92;;
8550;SDS011;4313;42.000;21.380;2022-12-10T10:50:37;31.77;;;20.05;;
8550;SDS011;4313;42.000;21.380;2022-12-10T10:53:22;32.58;;;20.27;;
8550;SDS011;4313;42.000;21.380;2022-12-10T10:55:54;30.95;;;23.55;;
8550;SDS011;4313;42.000;21.380;2022-12-10T10:58:23;34.13;;;23.60;;
8550;SDS011;4313;42.000;21.380;2022-12-10T11:00:58;34.33;;;22.75;;
8550;SDS011;4313;42.000;21.380;2022-12-10T11:03:26;29.70;;;20.40;;
8550;SDS011;4313;42.000;21.380;2022-12-10T11:05:57;34.05;;;24.92;;
8550;SDS011;4313;42.000;21.380;2022-12-10T11:08:25;45.22;;;29.80;;
8550;SDS011;4313;42.000;21.380;2022-12-10T11:10:56;43.95;;;29.00;;
8550;SDS011;4313;42.000;21.380;2022-12-10T11:13:27;44.75;;;29.58;;
8550;SDS011;4313;42.000;21.380;2022-12-10T11:15:56;31.35;;;20.35;;
8550;SDS011;4313;42.000;21.380;2022-12-10T11:18:29;30.05;;;19.58;;
8550;SDS011;4313;42.000;21.380;2022-12-10T11:21:00;27.40;;;19.10;;
8550;SDS011;4313;42.000;21.380;2022-12-10T11:23:32;25.48;;;19.20;;
8550;SDS011;4313;42.000;21.380;2022-12-10T11:26:18;25.58;;;18.13;;
8550;SDS011;4313;42.000;21.380;2022-12-10T11:29:05;28.35;;;19.42;;
8550;SDS011;4313;42.000;21.380;2022-12-10T11:31:42;28.45;;;19.48;;
8550;SDS011;4313;42.000;21.380;2022-12-10T11:34:18;31.08;;;22.50;;
8550;SDS011;4313;42.000;21.380;2022-12-10T11:36:52;28.88;;;19.88;;
8550;SDS011;4313;42.000;21.380;2022-12-10T11:39:33;25.63;;;19.73;;
8550;SDS011;4313;42.000;21.380;2022-12-10T11:42:12;30.48;;;20.73;;
8550;SDS011;4313;42.000;21.380;2022-12-10T11:44:47;34.67;;;23.10;;
8550;SDS011;4313;42.000;21.380;2022-12-10T11:47:28;29.05;;;19.58;;
8550;SDS011;4313;42.000;21.380;2022-12-10T11:50:03;43.45;;;25.45;;
8550;SDS011;4313;42.000;21.380;2022-12-10T11:52:43;36.35;;;23.02;;
8550;SDS011;4313;42.000;21.380;2022-12-10T11:55:18;39.25;;;24.55;;
8550;SDS011;4313;42.000;21.380;2022-12-10T11:57:56;52.33;;;35.00;;
8550;SDS011;4313;42.000;21.380;2022-12-10T12:00:39;37.88;;;28.25;;
8550;SDS011;4313;42.000;21.380;2022-12-10T12:03:19;32.45;;;22.90;;
8550;SDS011;4313;42.000;21.380;2022-12-10T12:06:10;47.80;;;31.77;;
8550;SDS011;4313;42.000;21.380;2022-12-10T12:08:50;37.72;;;25.52;;
8550;SDS011;4313;42.000;21.380;2022-12-10T12:11:30;67.00;;;45.85;;
8550;SDS011;4313;42.000;21.380;2022-12-10T12:14:06;61.22;;;42.42;;
8550;SDS011;4313;42.000;21.380;2022-12-10T12:16:40;49.83;;;35.83;;
8550;SDS011;4313;42.000;21.380;2022-12-10T12:19:11;36.50;;;24.73;;
8550;SDS011;4313;42.000;21.380;2022-12-10T12:21:41;37.30;;;25.55;;
8550;SDS011;4313;42.000;21.380;2022-12-10T12:24:12;47.42;;;30.20;;
8550;SDS011;4313;42.000;21.380;2022-12-10T12:26:43;33.70;;;24.15;;
8550;SDS011;4313;42.000;21.380;2022-12-10T12:29:33;32.70;;;23.70;;
8550;SDS011;4313;42.000;21.380;2022-12-10T12:32:02;46.08;;;31.35;;
8550;SDS011;4313;42.000;21.380;2022-12-10T12:34:33;37.45;;;24.85;;
8550;SDS011;4313;42.000;21.380;2022-12-10T12:37:04;37.20;;;24.88;;
8550;SDS011;4313;42.000;21.380;2022-12-10T12:39:34;35.17;;;23.67;;
8550;SDS011;4313;42.000;21.380;2022-12-10T12:42:06;35.78;;;24.63;;
8550;SDS011;4313;42.000;21.380;2022-12-10T12:47:31;34.25;;;23.63;;
8550;SDS011;4313;42.000;21.380;2022-12-10T12:50:01;31.85;;;23.83;;
8550;SDS011;4313;42.000;21.380;2022-12-10T12:52:32;37.90;;;26.33;;
8550;SDS011;4313;42.000;21.380;2022-12-10T12:55:05;34.92;;;27.13;;
8550;SDS011;4313;42.000;21.380;2022-12-10T12:57:39;37.90;;;25.60;;
8550;SDS011;4313;42.000;21.380;2022-12-10T13:00:10;44.92;;;30.02;;
8550;SDS011;4313;42.000;21.380;2022-12-10T13:02:58;35.22;;;29.13;;
8550;SDS011;4313;42.000;21.380;2022-12-10T13:05:28;40.95;;;30.13;;
8550;SDS011;4313;42.000;21.380;2022-12-10T13:11:15;40.80;;;30.25;;
8550;SDS011;4313;42.000;21.380;2022-12-10T13:17:05;39.38;;;27.77;;
8550;SDS011;4313;42.000;21.380;2022-12-10T13:19:35;39.20;;;27.35;;
8550;SDS011;4313;42.000;21.380;2022-12-10T13:22:04;34.63;;;25.67;;
8550;SDS011;4313;42.000;21.380;2022-12-10T13:24:43;41.88;;;30.52;;
8550;SDS011;4313;42.000;21.380;2022-12-10T13:27:30;49.60;;;33.05;;
8550;SDS011;4313;42.000;21.380;2022-12-10T13:30:00;53.15;;;39.35;;
8550;SDS011;4313;42.000;21.380;2022-12-10T13:32:42;47.75;;;30.25;;
8550;SDS011;4313;42.000;21.380;2022-12-10T13:35:28;37.00;;;27.52;;
8550;SDS011;4313;42.000;21.380;2022-12-10T13:37:57;38.65;;;27.92;;
8550;SDS011;4313;42.000;21.380;2022-12-10T13:40:42;41.92;;;28.38;;
8550;SDS011;4313;42.000;21.380;2022-12-10T13:43:35;39.58;;;28.80;;
8550;SDS011;4313;42.000;21.380;2022-12-10T13:46:24;39.15;;;27.70;;
8550;SDS011;4313;42.000;21.380;2022-12-10T13:48:53;37.72;;;26.20;;
8550;SDS011;4313;42.000;21.380;2022-12-10T13:51:23;36.42;;;26.52;;
8550;SDS011;4313;42.000;21.380;2022-12-10T13:54:02;37.55;;;26.75;;
8550;SDS011;4313;42.000;21.380;2022-12-10T13:56:36;33.90;;;28.05;;
8550;SDS011;4313;42.000;21.380;2022-12-10T13:59:15;98.15;;;59.13;;
8550;SDS011;4313;42.000;21.380;2022-12-10T14:01:53;78.50;;;49.38;;
8550;SDS011;4313;42.000;21.380;2022-12-10T14:04:32;71.13;;;48.38;;
8550;SDS011;4313;42.000;21.380;2022-12-10T14:07:06;62.97;;;41.15;;
8550;SDS011;4313;42.000;21.380;2022-12-10T14:09:35;45.88;;;32.72;;
8550;SDS011;4313;42.000;21.380;2022-12-10T14:12:06;41.53;;;28.38;;
8550;SDS011;4313;42.000;21.380;2022-12-10T14:14:39;38.22;;;26.77;;
8550;SDS011;4313;42.000;21.380;2022-12-10T14:17:10;45.75;;;30.13;;
8550;SDS011;4313;42.000;21.380;2022-12-10T14:19:39;46.20;;;29.30;;
8550;SDS011;4313;42.000;21.380;2022-12-10T14:22:13;46.35;;;30.45;;
8550;SDS011;4313;42.000;21.380;2022-12-10T14:24:42;42.28;;;30.35;;
8550;SDS011;4313;42.000;21.380;2022-12-10T14:27:11;43.67;;;32.90;;
8550;SDS011;4313;42.000;21.380;2022-12-10T14:29:45;43.13;;;31.00;;
8550;SDS011;4313;42.000;21.380;2022-12-10T14:32:12;41.92;;;29.00;;
8550;SDS011;4313;42.000;21.380;2022-12-10T14:34:41;69.93;;;42.97;;
8550;SDS011;4313;42.000;21.380;2022-12-10T14:37:08;102.85;;;59.60;;
8550;SDS011;4313;42.000;21.380;2022-12-10T14:39:40;149.77;;;80.35;;
8550;SDS011;4313;42.000;21.380;2022-12-10T14:42:09;257.42;;;125.95;;
8550;SDS011;4313;42.000;21.380;2022-12-10T14:44:42;254.82;;;115.60;;
8550;SDS011;4313;42.000;21.380;2022-12-10T14:47:13;93.05;;;58.95;;
8550;SDS011;4313;42.000;21.380;2022-12-10T14:49:43;124.05;;;70.82;;
8550;SDS011;4313;42.000;21.380;2022-12-10T14:52:12;203.50;;;107.25;;
8550;SDS011;4313;42.000;21.380;2022-12-10T14:54:41;125.03;;;75.70;;
8550;SDS011;4313;42.000;21.380;2022-12-10T14:57:10;102.57;;;65.70;;
8550;SDS011;4313;42.000;21.380;2022-12-10T14:59:45;98.95;;;65.80;;
8550;SDS011;4313;42.000;21.380;2022-12-10T15:02:16;110.95;;;75.78;;
8550;SDS011;4313;42.000;21.380;2022-12-10T15:04:47;90.15;;;63.75;;